Time;durP1;ratioP1;P1;durP2;ratioP2;P2;SDS_P1;SDS_P2;PMS_P1;PMS_P2;Temp;Humidity;BMP_temperature;BMP_pressure;BME280_temperature;BME280_humidity;BME280_pressure;Samples;Min_cycle;Max_cycle;Signal;HPM_P1;HPM_P2
2022/03/08 00:01:17;;;;;;;18.50;12.40;;;-3.00;87.80;;;;;;5095411;28;20200;-82
2022/03/08 00:03:43;;;;;;;15.80;12.07;;;-3.00;88.10;;;;;;5095304;28;20238;-82
2022/03/08 00:06:10;;;;;;;19.02;12.75;;;-3.00;88.00;;;;;;5096588;28;20203;-81
2022/03/08 00:08:37;;;;;;;16.23;12.57;;;-3.00;88.50;;;;;;5096332;28;20207;-82
2022/03/08 00:11:04;;;;;;;18.45;13.15;;;-3.10;88.40;;;;;;5098075;28;20228;-83
2022/03/08 00:13:31;;;;;;;17.80;13.50;;;-3.20;88.50;;;;;;5101891;28;20208;-81
2022/03/08 00:15:59;;;;;;;17.75;11.65;;;-3.20;88.50;;;;;;5099018;28;20204;-82
2022/03/08 00:18:26;;;;;;;16.77;12.82;;;-3.20;88.80;;;;;;5098982;28;20215;-82
2022/03/08 00:20:52;;;;;;;17.23;12.25;;;-3.20;88.80;;;;;;5099327;28;20196;-81
2022/03/08 00:23:19;;;;;;;17.50;12.82;;;-3.30;89.00;;;;;;5099409;28;20598;-82
2022/03/08 00:25:46;;;;;;;19.33;11.90;;;-3.30;88.90;;;;;;5099163;28;20243;-82
2022/03/08 00:28:13;;;;;;;16.30;11.48;;;-3.30;88.90;;;;;;5094709;28;20206;-82
2022/03/08 00:30:40;;;;;;;18.63;12.25;;;-3.30;88.90;;;;;;5094303;28;20207;-84
2022/03/08 00:33:08;;;;;;;17.70;12.50;;;-3.30;88.80;;;;;;5092414;28;20682;-82
2022/03/08 00:35:35;;;;;;;17.23;11.32;;;-3.30;88.40;;;;;;5093711;28;20273;-82
2022/03/08 00:38:02;;;;;;;14.50;11.85;;;-3.30;88.50;;;;;;5093524;28;20624;-83
2022/03/08 00:40:28;;;;;;;15.30;10.88;;;-3.40;88.60;;;;;;5093452;28;20200;-83
2022/03/08 00:42:55;;;;;;;22.85;12.45;;;-3.40;88.70;;;;;;5093584;28;20192;-81
2022/03/08 00:45:22;;;;;;;15.40;12.13;;;-3.40;88.50;;;;;;5093205;28;20253;-81
2022/03/08 00:47:50;;;;;;;15.50;10.90;;;-3.50;88.90;;;;;;5095032;28;20210;-81
2022/03/08 00:50:20;;;;;;;16.90;12.00;;;-3.50;89.00;;;;;;5094796;28;20195;-83
2022/03/08 00:52:47;;;;;;;17.65;12.60;;;-3.40;89.20;;;;;;5094407;28;20219;-83
2022/03/08 00:55:15;;;;;;;20.25;12.30;;;-3.50;88.90;;;;;;5092708;28;20231;-83
2022/03/08 00:57:42;;;;;;;17.42;12.27;;;-3.50;89.00;;;;;;5093486;28;20200;-82
2022/03/08 01:00:12;;;;;;;16.17;11.52;;;-3.50;89.20;;;;;;5093958;28;20199;-83
2022/03/08 01:02:39;;;;;;;15.63;11.40;;;-3.50;89.20;;;;;;5093704;28;20204;-83
2022/03/08 01:05:07;;;;;;;15.20;11.10;;;-3.60;89.30;;;;;;5093807;28;20729;-83
2022/03/08 01:07:35;;;;;;;16.13;10.80;;;-3.60;89.20;;;;;;5093145;28;20208;-83
2022/03/08 01:10:03;;;;;;;15.20;11.10;;;-3.60;89.20;;;;;;5094395;28;20211;-83
2022/03/08 01:12:29;;;;;;;21.92;12.25;;;-3.60;89.30;;;;;;5093672;28;20215;-83
2022/03/08 01:14:56;;;;;;;18.40;11.75;;;-3.60;89.50;;;;;;5093734;28;20242;-83
2022/03/08 01:17:23;;;;;;;18.30;11.57;;;-3.70;89.80;;;;;;5092784;28;20207;-82
2022/03/08 01:19:50;;;;;;;18.17;12.07;;;-3.70;89.90;;;;;;5094507;28;20210;-83
2022/03/08 01:22:17;;;;;;;15.25;10.95;;;-3.70;90.00;;;;;;5094897;28;20200;-82
2022/03/08 01:24:45;;;;;;;14.55;10.65;;;-3.70;90.00;;;;;;5093915;28;20219;-82
2022/03/08 01:27:11;;;;;;;16.13;11.25;;;-3.70;89.80;;;;;;5093961;28;20207;-82
2022/03/08 01:29:38;;;;;;;20.67;11.88;;;-3.70;89.40;;;;;;5094620;28;20192;-83
2022/03/08 01:32:06;;;;;;;13.02;9.65;;;-3.70;89.80;;;;;;5094221;28;20235;-81
2022/03/08 01:34:34;;;;;;;14.35;10.40;;;-3.70;90.20;;;;;;5094010;28;20261;-82
2022/03/08 01:37:00;;;;;;;13.43;11.15;;;-3.70;90.10;;;;;;5093479;28;20302;-82
2022/03/08 01:39:27;;;;;;;15.55;11.05;;;-3.80;90.20;;;;;;5094066;28;20202;-83
2022/03/08 01:41:55;;;;;;;12.40;10.20;;;-3.80;90.20;;;;;;5093816;28;20563;-83
2022/03/08 01:44:23;;;;;;;13.20;9.70;;;-3.80;90.20;;;;;;5094044;28;20220;-83
2022/03/08 01:46:50;;;;;;;15.77;10.35;;;-3.80;90.10;;;;;;5093623;28;20208;-83
2022/03/08 01:49:16;;;;;;;13.27;10.32;;;-3.80;90.10;;;;;;5093499;28;20214;-83
2022/03/08 01:51:43;;;;;;;16.92;12.15;;;-3.80;89.90;;;;;;5093967;28;20223;-83
2022/03/08 01:54:11;;;;;;;15.10;10.93;;;-3.90;90.30;;;;;;5093090;28;20580;-83
2022/03/08 01:56:38;;;;;;;18.13;11.35;;;-3.90;90.40;;;;;;5092941;28;20551;-81
2022/03/08 01:59:07;;;;;;;17.73;11.50;;;-4.00;90.40;;;;;;5093302;28;20208;-83
2022/03/08 02:01:33;;;;;;;14.95;10.40;;;-4.00;90.50;;;;;;5107746;28;20200;-81
2022/03/08 02:04:00;;;;;;;15.75;10.65;;;-4.00;90.60;;;;;;5109544;28;20230;-81
2022/03/08 02:06:28;;;;;;;13.93;10.00;;;-4.00;90.50;;;;;;5110355;28;20206;-81
2022/03/08 02:08:55;;;;;;;16.45;9.70;;;-4.00;90.40;;;;;;5109539;28;20229;-83
2022/03/08 02:11:23;;;;;;;19.48;11.35;;;-4.00;90.40;;;;;;5094980;28;20211;-83
2022/03/08 02:13:50;;;;;;;14.05;10.90;;;-4.00;90.50;;;;;;5094390;28;20245;-83
2022/03/08 02:16:18;;;;;;;19.27;12.40;;;-4.00;90.60;;;;;;5093562;28;20210;-83
2022/03/08 02:18:45;;;;;;;15.93;10.65;;;-4.00;91.00;;;;;;5093462;28;20195;-83
2022/03/08 02:21:13;;;;;;;14.65;10.50;;;-4.10;91.00;;;;;;5094014;28;20203;-83
2022/03/08 02:23:40;;;;;;;16.40;10.90;;;-4.10;91.10;;;;;;5093650;28;20203;-81
2022/03/08 02:26:07;;;;;;;16.50;11.85;;;-4.10;91.10;;;;;;5093495;28;20203;-82
2022/03/08 02:28:34;;;;;;;17.77;11.55;;;-4.10;91.00;;;;;;5092448;28;20204;-83
2022/03/08 02:31:01;;;;;;;18.67;11.05;;;-4.00;91.10;;;;;;5095728;28;20208;-82
2022/03/08 02:33:28;;;;;;;15.80;11.82;;;-4.00;90.90;;;;;;5099287;28;20234;-83
2022/03/08 02:35:54;;;;;;;15.07;11.30;;;-3.90;90.90;;;;;;5099755;28;20262;-82
2022/03/08 02:38:23;;;;;;;15.15;11.23;;;-4.00;91.00;;;;;;5097448;28;20208;-83
2022/03/08 02:40:50;;;;;;;14.52;10.57;;;-4.00;91.20;;;;;;5092893;28;20589;-82
2022/03/08 02:43:18;;;;;;;20.48;12.32;;;-4.10;91.20;;;;;;5092948;28;20196;-83
2022/03/08 02:45:45;;;;;;;16.42;10.80;;;-4.10;91.20;;;;;;5092767;28;20310;-82
2022/03/08 02:48:12;;;;;;;15.10;10.73;;;-4.10;91.30;;;;;;5090468;28;20208;-82
2022/03/08 02:50:39;;;;;;;15.45;11.35;;;-4.20;91.20;;;;;;5090913;28;20195;-82
2022/03/08 02:53:06;;;;;;;16.25;11.60;;;-4.20;91.20;;;;;;5091340;28;20227;-82
2022/03/08 02:55:36;;;;;;;17.05;11.82;;;-4.30;91.30;;;;;;5090942;28;20243;-82
2022/03/08 02:58:04;;;;;;;20.70;11.52;;;-4.30;91.50;;;;;;5090546;28;20206;-82
2022/03/08 03:00:32;;;;;;;14.20;10.77;;;-4.30;91.70;;;;;;5091485;28;20694;-82
2022/03/08 03:02:59;;;;;;;16.92;12.43;;;-4.30;91.70;;;;;;5090995;28;20192;-83
2022/03/08 03:05:26;;;;;;;15.18;11.30;;;-4.30;91.60;;;;;;5091671;28;20222;-81
2022/03/08 03:07:53;;;;;;;17.20;11.57;;;-4.30;91.60;;;;;;5090721;28;20196;-82
2022/03/08 03:10:22;;;;;;;15.77;11.73;;;-4.20;91.70;;;;;;5091986;28;20216;-83
2022/03/08 03:12:51;;;;;;;19.55;11.50;;;-4.20;91.50;;;;;;5091728;28;20226;-83
2022/03/08 03:15:18;;;;;;;17.30;11.15;;;-4.30;91.50;;;;;;5092145;28;20234;-82
2022/03/08 03:17:46;;;;;;;16.05;10.93;;;-4.30;91.50;;;;;;5109117;28;20183;-81
2022/03/08 03:20:14;;;;;;;16.33;10.52;;;-4.30;91.70;;;;;;5103165;28;20668;-83
2022/03/08 03:22:41;;;;;;;15.93;10.82;;;-4.30;91.70;;;;;;5097929;28;20211;-82
2022/03/08 03:25:09;;;;;;;17.52;10.77;;;-4.30;91.60;;;;;;5097793;28;20226;-83
2022/03/08 03:27:36;;;;;;;15.40;11.13;;;-4.30;91.70;;;;;;5097387;28;20282;-82
2022/03/08 03:30:08;;;;;;;14.10;10.57;;;-4.40;91.80;;;;;;5096568;28;20682;-82
2022/03/08 03:32:35;;;;;;;16.13;10.25;;;-4.40;91.80;;;;;;5096628;28;20231;-83
2022/03/08 03:35:02;;;;;;;16.08;11.30;;;-4.40;91.90;;;;;;5096512;28;20219;-83
2022/03/08 03:37:29;;;;;;;13.98;10.63;;;-4.40;92.30;;;;;;5095799;28;20196;-82
2022/03/08 03:39:56;;;;;;;17.08;11.00;;;-4.50;91.90;;;;;;5096543;28;20579;-83
2022/03/08 03:42:23;;;;;;;16.17;10.98;;;-4.50;91.90;;;;;;5096155;28;20203;-83
2022/03/08 03:44:49;;;;;;;16.05;10.57;;;-4.50;91.80;;;;;;5096196;28;20789;-83
2022/03/08 03:47:17;;;;;;;15.48;11.07;;;-4.50;91.90;;;;;;5095840;28;20206;-83
2022/03/08 03:49:44;;;;;;;14.43;11.23;;;-4.60;91.90;;;;;;5096488;28;20200;-83
2022/03/08 03:52:11;;;;;;;15.82;10.75;;;-4.60;91.90;;;;;;5095955;28;20690;-83
2022/03/08 03:54:38;;;;;;;16.15;11.20;;;-4.50;91.90;;;;;;5096554;28;20224;-84
2022/03/08 03:57:05;;;;;;;13.75;9.70;;;-4.50;91.90;;;;;;5096012;28;20577;-82
2022/03/08 03:59:32;;;;;;;12.73;10.02;;;-4.50;91.80;;;;;;5095282;28;20573;-83
2022/03/08 04:01:59;;;;;;;13.35;8.88;;;-4.40;91.70;;;;;;5096045;28;20206;-83
2022/03/08 04:04:27;;;;;;;17.45;10.45;;;-4.30;91.70;;;;;;5096061;28;20220;-83
2022/03/08 04:06:54;;;;;;;15.55;10.68;;;-4.30;91.60;;;;;;5096371;28;20200;-83
2022/03/08 04:09:21;;;;;;;13.45;10.70;;;-4.20;91.60;;;;;;5095681;28;20249;-83
2022/03/08 04:11:48;;;;;;;18.08;11.90;;;-4.30;91.70;;;;;;5095437;28;20200;-82
2022/03/08 04:14:15;;;;;;;14.02;9.18;;;-4.30;91.70;;;;;;5094911;28;20224;-82
2022/03/08 04:16:42;;;;;;;13.85;10.60;;;-4.30;91.70;;;;;;5094304;28;20222;-83
2022/03/08 04:19:08;;;;;;;17.10;11.05;;;-4.40;91.70;;;;;;5095069;28;20702;-83
2022/03/08 04:21:36;;;;;;;14.52;10.45;;;-4.40;91.90;;;;;;5095179;28;20200;-83
2022/03/08 04:24:03;;;;;;;14.93;10.70;;;-4.40;91.90;;;;;;5094691;28;20247;-83
2022/03/08 04:26:30;;;;;;;14.93;10.93;;;-4.50;92.10;;;;;;5095033;28;20204;-81
2022/03/08 04:28:57;;;;;;;13.90;10.23;;;-4.50;92.10;;;;;;5093162;28;20210;-79
2022/03/08 04:31:24;;;;;;;15.90;10.68;;;-4.60;92.10;;;;;;5094339;28;20594;-81
2022/03/08 04:33:51;;;;;;;14.30;9.57;;;-4.60;92.20;;;;;;5092520;28;20593;-80
2022/03/08 04:36:17;;;;;;;15.35;9.57;;;-4.60;92.10;;;;;;5093422;28;20788;-78
2022/03/08 04:38:45;;;;;;;13.05;10.13;;;-4.50;92.10;;;;;;5093582;28;20191;-79
2022/03/08 04:41:12;;;;;;;15.85;10.05;;;-4.50;92.40;;;;;;5093134;28;20196;-79
2022/03/08 04:43:39;;;;;;;14.00;9.45;;;-4.50;92.10;;;;;;5093217;28;20659;-79
2022/03/08 04:46:06;;;;;;;13.27;8.85;;;-4.50;92.00;;;;;;5093286;28;20199;-80
2022/03/08 04:48:32;;;;;;;14.75;10.52;;;-4.40;92.20;;;;;;5096462;28;20203;-81
2022/03/08 04:50:59;;;;;;;13.32;9.32;;;-4.40;92.10;;;;;;5098235;28;20196;-81
2022/03/08 04:53:26;;;;;;;16.73;9.55;;;-4.40;92.10;;;;;;5097714;28;20574;-79
2022/03/08 04:55:54;;;;;;;13.75;9.25;;;-4.40;92.10;;;;;;5095413;28;20194;-81
2022/03/08 04:58:21;;;;;;;15.82;11.25;;;-4.40;92.10;;;;;;5094905;28;20218;-80
2022/03/08 05:00:48;;;;;;;12.30;9.10;;;-4.40;92.00;;;;;;5093649;28;20207;-81
2022/03/08 05:03:14;;;;;;;18.65;9.82;;;-4.40;92.00;;;;;;5092115;28;20659;-80
2022/03/08 05:05:41;;;;;;;15.52;10.10;;;-4.30;92.20;;;;;;5092050;28;20223;-80
2022/03/08 05:08:08;;;;;;;14.30;9.45;;;-4.30;92.00;;;;;;5091416;28;20199;-80
2022/03/08 05:10:35;;;;;;;10.90;8.68;;;-4.30;92.00;;;;;;5093449;28;20200;-80
2022/03/08 05:15:31;;;;;;;11.52;8.07;;;-4.40;91.90;;;;;;5039242;28;20221;-78
2022/03/08 05:17:57;;;;;;;13.63;8.65;;;-4.40;91.90;;;;;;5042077;28;20687;-77
2022/03/08 05:20:24;;;;;;;10.07;7.78;;;-4.40;91.90;;;;;;5041543;28;20217;-77
2022/03/08 05:22:51;;;;;;;9.65;7.88;;;-4.40;91.70;;;;;;5040276;28;20198;-76
2022/03/08 05:25:18;;;;;;;12.35;8.30;;;-4.40;91.40;;;;;;5041238;28;20455;-77
2022/03/08 05:27:45;;;;;;;8.07;6.93;;;-4.40;91.40;;;;;;5045355;28;20201;-77
2022/03/08 05:30:13;;;;;;;10.27;8.05;;;-4.40;91.60;;;;;;5044051;28;20284;-76
2022/03/08 05:32:41;;;;;;;10.80;8.10;;;-4.40;91.60;;;;;;5052641;28;20229;-76
2022/03/08 05:35:09;;;;;;;9.63;7.63;;;-4.40;91.60;;;;;;5052337;28;20830;-76
2022/03/08 05:37:36;;;;;;;10.75;7.22;;;-4.40;91.60;;;;;;5051205;28;20224;-76
2022/03/08 05:40:04;;;;;;;12.20;7.47;;;-4.40;91.70;;;;;;5051979;28;20638;-76
2022/03/08 05:42:31;;;;;;;7.97;6.70;;;-4.30;91.80;;;;;;5051713;28;20212;-76
2022/03/08 05:44:58;;;;;;;10.10;7.60;;;-4.40;91.60;;;;;;5052098;28;20217;-76
2022/03/08 05:47:25;;;;;;;10.77;6.15;;;-4.30;91.60;;;;;;5050759;28;20204;-76
2022/03/08 05:49:53;;;;;;;10.82;6.53;;;-4.30;91.60;;;;;;5052455;28;20201;-76
2022/03/08 05:52:20;;;;;;;8.43;6.80;;;-4.20;91.60;;;;;;5056282;28;20292;-76
2022/03/08 05:54:46;;;;;;;11.10;7.00;;;-4.20;91.40;;;;;;5055751;28;20248;-76
2022/03/08 05:57:13;;;;;;;11.13;7.03;;;-4.20;91.40;;;;;;5052996;28;20205;-76
2022/03/08 05:59:40;;;;;;;7.90;6.57;;;-4.20;91.40;;;;;;5051972;28;20209;-76
2022/03/08 06:02:07;;;;;;;9.07;6.57;;;-4.20;91.30;;;;;;5053982;28;20212;-76
2022/03/08 06:04:33;;;;;;;9.25;6.90;;;-4.20;91.20;;;;;;5051752;28;20672;-76
2022/03/08 06:07:01;;;;;;;9.75;6.85;;;-4.20;91.20;;;;;;5051017;28;20668;-76
2022/03/08 06:09:28;;;;;;;9.43;6.93;;;-4.20;91.20;;;;;;5051214;28;20202;-76
2022/03/08 06:11:55;;;;;;;11.00;7.93;;;-4.20;91.20;;;;;;5051643;28;20205;-76
2022/03/08 06:14:22;;;;;;;9.85;6.45;;;-4.20;91.30;;;;;;5052808;28;20844;-76
2022/03/08 06:16:49;;;;;;;10.40;6.97;;;-4.20;91.40;;;;;;5057333;28;20205;-76
2022/03/08 06:19:15;;;;;;;7.50;5.53;;;-4.10;91.40;;;;;;5055726;28;20201;-76
2022/03/08 06:21:42;;;;;;;10.55;7.13;;;-4.10;91.40;;;;;;5051740;28;20593;-76
2022/03/08 06:24:11;;;;;;;7.82;6.20;;;-4.00;91.20;;;;;;5051823;28;20247;-76
2022/03/08 06:26:38;;;;;;;8.10;6.40;;;-3.90;91.20;;;;;;5051786;28;20216;-76
2022/03/08 06:29:05;;;;;;;8.60;6.60;;;-3.90;91.40;;;;;;5050600;28;20267;-76
2022/03/08 06:31:32;;;;;;;14.18;8.05;;;-3.90;91.50;;;;;;5050539;28;20221;-76
2022/03/08 06:33:59;;;;;;;10.68;7.80;;;-3.90;91.50;;;;;;5050343;28;20229;-76
2022/03/08 06:36:25;;;;;;;10.90;6.75;;;-3.80;91.60;;;;;;5050843;28;20205;-76
2022/03/08 06:38:52;;;;;;;11.80;6.15;;;-3.80;91.60;;;;;;5049924;28;20212;-76
2022/03/08 06:41:20;;;;;;;10.27;6.45;;;-3.70;91.60;;;;;;5050921;28;20201;-76
2022/03/08 06:43:47;;;;;;;8.82;6.28;;;-3.60;91.60;;;;;;5049885;28;20227;-76
2022/03/08 06:46:14;;;;;;;9.43;7.35;;;-3.50;91.60;;;;;;5050175;28;20208;-76
2022/03/08 06:48:40;;;;;;;8.73;7.47;;;-3.40;91.40;;;;;;5049512;28;20601;-76
2022/03/08 06:51:07;;;;;;;7.00;6.25;;;-3.30;91.30;;;;;;5050317;28;20205;-76
2022/03/08 06:53:34;;;;;;;9.60;6.10;;;-3.10;91.30;;;;;;5053178;28;20228;-76
2022/03/08 06:56:01;;;;;;;9.07;6.38;;;-2.80;90.70;;;;;;5053717;28;20675;-76
2022/03/08 06:58:29;;;;;;;8.00;6.25;;;-2.60;90.20;;;;;;5053739;28;20197;-75
2022/03/08 07:00:55;;;;;;;8.05;5.68;;;-2.40;90.00;;;;;;5053860;28;20215;-75
2022/03/08 07:03:22;;;;;;;9.43;6.50;;;-2.20;90.00;;;;;;5054790;28;20193;-76
2022/03/08 07:05:49;;;;;;;6.20;5.57;;;-1.70;89.70;;;;;;5054954;28;20205;-76
2022/03/08 07:08:16;;;;;;;10.43;6.28;;;-0.90;90.00;;;;;;5054396;28;20201;-75
2022/03/08 07:10:43;;;;;;;10.07;6.30;;;-0.10;86.80;;;;;;5054484;28;20197;-76
2022/03/08 07:13:09;;;;;;;7.40;5.57;;;0.60;85.00;;;;;;5054496;28;20223;-76
2022/03/08 07:15:38;;;;;;;10.00;6.30;;;1.20;81.60;;;;;;5054259;28;20225;-76
2022/03/08 07:18:05;;;;;;;7.10;5.90;;;1.70;80.70;;;;;;5053726;28;20304;-76
2022/03/08 07:20:32;;;;;;;7.18;5.60;;;2.20;78.40;;;;;;5054674;28;20212;-76
2022/03/08 07:22:59;;;;;;;8.13;5.50;;;2.80;78.50;;;;;;5054559;28;20205;-76
2022/03/08 07:25:26;;;;;;;7.90;6.38;;;3.40;76.70;;;;;;5054322;28;20716;-76
2022/03/08 07:27:53;;;;;;;7.03;5.90;;;3.50;75.30;;;;;;5053100;28;20201;-76
2022/03/08 07:30:19;;;;;;;6.57;5.93;;;3.90;74.40;;;;;;5053667;28;20216;-76
2022/03/08 07:32:49;;;;;;;6.57;5.90;;;4.10;73.20;;;;;;5053857;28;20209;-77
2022/03/08 07:35:16;;;;;;;6.57;5.97;;;4.40;73.00;;;;;;5053178;28;20605;-76
2022/03/08 07:37:43;;;;;;;7.88;6.68;;;4.20;71.50;;;;;;5053147;28;20205;-76
2022/03/08 07:40:11;;;;;;;6.53;5.90;;;4.20;72.50;;;;;;5053678;28;20570;-77
2022/03/08 07:42:37;;;;;;;6.22;5.60;;;4.40;72.00;;;;;;5053494;28;20209;-76
2022/03/08 07:45:05;;;;;;;5.82;5.28;;;4.80;71.50;;;;;;5053513;28;20217;-76
2022/03/08 07:47:31;;;;;;;6.80;6.20;;;5.20;71.50;;;;;;5053040;28;20205;-76
2022/03/08 07:50:00;;;;;;;6.72;6.05;;;5.90;70.50;;;;;;5053992;28;20676;-77
2022/03/08 07:52:26;;;;;;;6.30;5.60;;;6.50;69.60;;;;;;5053712;28;20231;-76
2022/03/08 07:54:53;;;;;;;7.32;6.05;;;6.90;68.30;;;;;;5053924;28;20879;-77
2022/03/08 07:57:20;;;;;;;7.25;6.30;;;7.00;67.60;;;;;;5053241;28;20201;-76
2022/03/08 07:59:48;;;;;;;7.15;5.88;;;7.30;68.30;;;;;;5053940;28;20205;-77
2022/03/08 08:02:15;;;;;;;7.07;6.38;;;7.60;67.60;;;;;;5053631;28;20236;-75
2022/03/08 08:04:41;;;;;;;8.05;6.93;;;8.20;65.60;;;;;;5052498;28;20221;-76
2022/03/08 08:07:10;;;;;;;6.55;5.95;;;8.30;65.70;;;;;;5053608;28;20207;-75
2022/03/08 08:09:37;;;;;;;6.95;6.22;;;8.50;66.00;;;;;;5052391;28;20208;-75
2022/03/08 08:12:05;;;;;;;7.13;6.43;;;8.70;64.90;;;;;;5053418;28;20201;-76
2022/03/08 08:14:32;;;;;;;8.10;7.30;;;8.80;65.10;;;;;;5047144;28;20236;-75
2022/03/08 08:16:59;;;;;;;8.20;7.00;;;8.90;65.60;;;;;;5051070;28;20205;-74
2022/03/08 08:19:26;;;;;;;6.07;5.47;;;9.20;64.10;;;;;;5050937;28;20251;-76
2022/03/08 08:21:53;;;;;;;7.00;6.35;;;9.20;64.20;;;;;;5051068;28;20212;-76
2022/03/08 08:24:21;;;;;;;6.85;6.18;;;9.60;64.60;;;;;;5035686;28;20218;-76
2022/03/08 08:26:48;;;;;;;7.82;6.40;;;10.30;62.50;;;;;;5035857;28;20233;-76
2022/03/08 08:29:15;;;;;;;10.40;6.50;;;10.90;62.50;;;;;;5051198;28;20452;-76
2022/03/08 08:31:42;;;;;;;7.10;6.40;;;11.30;60.60;;;;;;5051184;28;20292;-76
2022/03/08 08:34:09;;;;;;;7.30;6.55;;;11.30;60.50;;;;;;5050786;28;20779;-75
2022/03/08 08:36:36;;;;;;;7.60;6.50;;;11.10;60.80;;;;;;5049968;28;20643;-76
2022/03/08 08:39:03;;;;;;;7.47;6.60;;;11.40;58.90;;;;;;5034155;28;20216;-75
2022/03/08 08:41:31;;;;;;;7.28;6.57;;;10.70;60.00;;;;;;5031636;28;20566;-76
2022/03/08 08:43:58;;;;;;;6.90;6.30;;;10.70;60.00;;;;;;5031101;28;20257;-76
2022/03/08 08:46:25;;;;;;;7.22;6.55;;;10.80;60.20;;;;;;5030631;28;20206;-76
2022/03/08 08:48:52;;;;;;;7.20;6.13;;;11.00;59.40;;;;;;5030882;28;20206;-76
2022/03/08 08:51:18;;;;;;;7.97;6.10;;;10.70;59.50;;;;;;5031441;28;20292;-76
2022/03/08 08:53:45;;;;;;;7.75;7.05;;;10.60;60.70;;;;;;5029859;28;20225;-75
2022/03/08 08:56:12;;;;;;;8.65;6.18;;;10.50;59.90;;;;;;5031602;28;20208;-76
2022/03/08 08:58:40;;;;;;;7.20;6.25;;;10.30;60.50;;;;;;5029963;28;20212;-75
2022/03/08 09:01:07;;;;;;;7.70;6.60;;;10.60;60.10;;;;;;5030514;28;20209;-75
2022/03/08 09:03:34;;;;;;;6.80;6.10;;;10.30;59.70;;;;;;5030530;28;20228;-75
2022/03/08 09:06:00;;;;;;;8.32;7.43;;;10.20;60.10;;;;;;5030739;28;20198;-75
2022/03/08 09:08:27;;;;;;;7.88;6.65;;;10.20;59.40;;;;;;5029946;28;20669;-75
2022/03/08 09:10:55;;;;;;;7.53;6.68;;;10.40;60.00;;;;;;5031047;28;20202;-75
2022/03/08 09:13:23;;;;;;;8.38;7.03;;;10.60;59.60;;;;;;5030491;28;20217;-75
2022/03/08 09:15:51;;;;;;;5.70;5.20;;;11.20;58.80;;;;;;5029873;28;20222;-75
2022/03/08 09:18:18;;;;;;;7.40;6.60;;;11.40;57.20;;;;;;5029703;28;20201;-75
2022/03/08 09:20:46;;;;;;;7.10;6.25;;;11.40;57.50;;;;;;5030828;28;20209;-75
2022/03/08 09:23:12;;;;;;;5.80;5.15;;;11.00;56.70;;;;;;5030351;28;20553;-75
2022/03/08 09:25:39;;;;;;;8.60;5.65;;;10.50;58.20;;;;;;5030444;28;20234;-77
2022/03/08 09:28:06;;;;;;;6.80;6.15;;;10.80;58.60;;;;;;5030159;28;20216;-75
2022/03/08 09:30:35;;;;;;;6.82;5.65;;;11.90;57.70;;;;;;5029744;28;20201;-76
2022/03/08 09:33:03;;;;;;;6.03;4.93;;;12.90;56.30;;;;;;5029812;28;20244;-76
2022/03/08 09:35:31;;;;;;;6.47;5.60;;;13.50;55.90;;;;;;5030403;28;20585;-75
2022/03/08 09:37:58;;;;;;;5.35;4.85;;;14.00;53.90;;;;;;5032263;28;20209;-76
2022/03/08 09:40:25;;;;;;;6.75;5.00;;;13.80;54.60;;;;;;5029371;28;20213;-76
2022/03/08 09:42:52;;;;;;;5.20;4.72;;;13.90;54.20;;;;;;5032249;28;20209;-75
2022/03/08 09:45:19;;;;;;;5.30;4.80;;;13.10;53.70;;;;;;5032770;28;20222;-76
2022/03/08 09:47:46;;;;;;;5.75;5.20;;;13.10;54.60;;;;;;5033343;28;20216;-76
2022/03/08 09:50:15;;;;;;;6.85;5.55;;;12.80;53.90;;;;;;5032134;28;20661;-77
2022/03/08 09:52:43;;;;;;;5.13;4.63;;;12.20;54.90;;;;;;5033711;28;20551;-77
2022/03/08 09:55:12;;;;;;;6.13;5.00;;;12.40;54.80;;;;;;5030452;28;20221;-77
2022/03/08 09:57:39;;;;;;;6.97;6.28;;;12.80;55.10;;;;;;5030348;28;20244;-77
2022/03/08 10:00:09;;;;;;;6.05;5.40;;;12.50;54.80;;;;;;5030166;28;20673;-76
2022/03/08 10:02:44;;;;;;;6.95;5.22;;;12.20;54.90;;;;;;5030498;28;20222;-77
2022/03/08 10:05:11;;;;;;;6.30;5.70;;;12.70;56.20;;;;;;5026903;28;20829;-76
2022/03/08 10:07:39;;;;;;;6.40;5.78;;;13.60;54.30;;;;;;5030258;28;20673;-77
2022/03/08 10:10:06;;;;;;;5.95;5.40;;;14.10;53.40;;;;;;5036728;28;20213;-77
2022/03/08 10:12:33;;;;;;;5.95;5.07;;;14.10;52.90;;;;;;5038532;28;20218;-77
2022/03/08 10:15:00;;;;;;;5.67;5.13;;;14.60;53.50;;;;;;5037288;28;20234;-77
2022/03/08 10:17:34;;;;;;;6.63;6.03;;;14.90;51.80;;;;;;5037505;28;20460;-77
2022/03/08 10:20:01;;;;;;;7.47;6.20;;;14.80;53.50;;;;;;5038216;28;20578;-77
2022/03/08 10:22:30;;;;;;;6.20;5.70;;;15.50;52.40;;;;;;5038519;28;20959;-77
2022/03/08 10:25:12;;;;;;;6.13;5.30;;;16.10;51.60;;;;;;5038291;28;20472;-77
2022/03/08 10:27:44;;;;;;;5.03;4.63;;;16.70;50.60;;;;;;5039658;28;20456;-77
2022/03/08 10:30:13;;;;;;;5.87;5.20;;;17.10;51.10;;;;;;5037859;28;20470;-75
2022/03/08 10:32:41;;;;;;;5.53;5.03;;;17.00;51.40;;;;;;5030971;28;20461;-77
2022/03/08 10:35:10;;;;;;;10.33;6.10;;;16.90;48.90;;;;;;5037761;28;21041;-77
2022/03/08 10:37:39;;;;;;;5.40;4.90;;;15.80;49.90;;;;;;5038981;28;20469;-76
2022/03/08 10:40:08;;;;;;;7.67;5.37;;;15.30;50.40;;;;;;5039528;28;20480;-77
2022/03/08 10:42:38;;;;;;;6.70;5.27;;;15.30;50.70;;;;;;5041592;28;20464;-77
2022/03/08 10:45:08;;;;;;;6.80;5.33;;;15.60;49.80;;;;;;5041374;28;20480;-77
2022/03/08 10:47:39;;;;;;;5.30;4.80;;;15.60;50.00;;;;;;5039421;28;20543;-77
2022/03/08 10:50:07;;;;;;;7.80;4.83;;;16.10;50.80;;;;;;5040422;28;20464;-76
2022/03/08 10:52:37;;;;;;;5.43;4.93;;;16.00;49.50;;;;;;5039985;28;20483;-77
2022/03/08 10:55:16;;;;;;;5.20;4.70;;;15.40;48.40;;;;;;5037826;28;20998;-77
2022/03/08 10:57:45;;;;;;;4.83;4.33;;;15.10;49.10;;;;;;5037820;28;20460;-76
2022/03/08 11:00:14;;;;;;;6.03;5.43;;;15.20;48.60;;;;;;5039746;28;20836;-77
2022/03/08 11:02:49;;;;;;;5.10;4.60;;;15.00;49.40;;;;;;5041272;28;20491;-76
2022/03/08 11:05:18;;;;;;;5.57;5.07;;;15.40;50.00;;;;;;5037506;28;20499;-75
2022/03/08 11:07:45;;;;;;;5.67;5.00;;;16.40;48.70;;;;;;5044031;28;20513;-77
2022/03/08 11:10:14;;;;;;;5.53;5.00;;;16.80;47.50;;;;;;5061600;28;20481;-76
2022/03/08 11:12:42;;;;;;;5.07;4.57;;;16.60;47.80;;;;;;5062444;28;20459;-77
2022/03/08 11:15:13;;;;;;;6.87;5.07;;;16.70;47.70;;;;;;5060788;28;20491;-77
2022/03/08 11:17:40;;;;;;;5.87;5.10;;;16.50;47.60;;;;;;5059817;28;20517;-77
2022/03/08 11:20:10;;;;;;;5.60;5.10;;;16.80;46.20;;;;;;5058851;28;20467;-77
2022/03/08 11:22:38;;;;;;;5.13;4.63;;;15.80;46.20;;;;;;5057904;28;20467;-76
2022/03/08 11:25:06;;;;;;;5.30;4.83;;;15.40;47.50;;;;;;5059353;28;20486;-76
2022/03/08 11:27:35;;;;;;;5.93;5.37;;;16.10;48.20;;;;;;5057535;28;20455;-76
2022/03/08 11:30:03;;;;;;;5.93;5.23;;;16.80;47.30;;;;;;5057949;28;20463;-77
2022/03/08 11:32:38;;;;;;;5.30;4.80;;;16.80;47.40;;;;;;5057452;28;20471;-76
2022/03/08 11:35:14;;;;;;;6.40;5.43;;;16.80;47.30;;;;;;5056549;28;20876;-77
2022/03/08 11:37:46;;;;;;;5.90;5.00;;;17.10;47.40;;;;;;5055733;28;20949;-76
2022/03/08 11:40:14;;;;;;;5.07;4.57;;;17.00;46.90;;;;;;5058403;28;20463;-77
2022/03/08 11:42:45;;;;;;;5.73;5.07;;;17.40;46.70;;;;;;5056284;28;20466;-77
2022/03/08 11:45:18;;;;;;;5.30;4.80;;;17.60;47.80;;;;;;5053013;28;20635;-76
2022/03/08 11:47:47;;;;;;;4.70;4.30;;;18.70;47.50;;;;;;5050759;28;20470;-76
2022/03/08 11:50:21;;;;;;;6.07;5.50;;;19.40;45.00;;;;;;5053232;28;20466;-76
2022/03/08 11:52:52;;;;;;;5.37;4.87;;;19.00;45.70;;;;;;5052040;28;20463;-77
2022/03/08 11:55:26;;;;;;;4.87;4.37;;;18.40;44.70;;;;;;5050833;28;20491;-76
2022/03/08 11:57:55;;;;;;;5.40;4.80;;;17.80;46.60;;;;;;5051728;28;20467;-76
2022/03/08 12:00:25;;;;;;;5.43;4.93;;;18.40;46.40;;;;;;5052278;28;20463;-76
2022/03/08 12:02:55;;;;;;;5.40;4.90;;;18.10;44.90;;;;;;5051353;28;20470;-76
2022/03/08 12:05:57;;;;;;;6.43;5.83;;;17.60;46.10;;;;;;5052152;28;20471;-76
2022/03/08 12:09:01;;;;;;;6.53;5.30;;;17.30;45.20;;;;;;5051395;28;20512;-75
2022/03/08 12:11:42;;;;;;;5.43;4.93;;;16.40;46.10;;;;;;5052782;28;20552;-77
2022/03/08 12:14:18;;;;;;;6.57;5.97;;;16.70;47.60;;;;;;5051349;28;20491;-76
2022/03/08 12:16:48;;;;;;;6.80;5.70;;;17.70;46.10;;;;;;5050914;28;20491;-77
2022/03/08 12:19:30;;;;;;;5.80;5.20;;;18.60;46.20;;;;;;5051485;28;20464;-76
2022/03/08 12:21:57;;;;;;;6.77;5.93;;;19.30;44.90;;;;;;5051866;28;20459;-77
2022/03/08 12:24:25;;;;;;;5.70;5.20;;;18.70;44.60;;;;;;5051122;28;20479;-76
2022/03/08 12:27:01;;;;;;;5.77;5.27;;;17.80;44.80;;;;;;5050534;28;20468;-76
2022/03/08 12:29:30;;;;;;;5.70;5.20;;;17.90;45.00;;;;;;5051357;28;20478;-75
2022/03/08 12:32:27;;;;;;;6.13;5.63;;;18.40;44.70;;;;;;5050480;28;20483;-77
2022/03/08 12:34:58;;;;;;;6.53;5.37;;;18.80;45.60;;;;;;5051468;28;21028;-75
2022/03/08 12:37:27;;;;;;;7.40;5.73;;;19.10;44.50;;;;;;5050321;28;20471;-76
2022/03/08 12:39:57;;;;;;;6.40;5.30;;;18.80;44.80;;;;;;5050838;28;20466;-76
2022/03/08 12:42:28;;;;;;;6.20;5.70;;;18.70;45.50;;;;;;5051658;28;20463;-76
2022/03/08 12:45:04;;;;;;;5.93;5.37;;;18.90;44.70;;;;;;5050283;28;20832;-75